KRCZ

Richmond County Airport

Rockingham, North Carolina, USA
METAR KRCZ 182130Z AUTO 21009G15KT 10SM SCT046 SCT060 30/21 A2992 RMK AO2 T03020211
Observed Flight Rules
Aug-18 @ 21:30 UTC (24 minutes ago) Visual Flight Rules
Wind Visibility Clouds
210° at 9 knots
 Gusting to 15 knots
10 miles
  • Scattered at 4,600' AGL
  • Scattered at 6,000' AGL
Temperatures Readings
Current 30°C / 86°F
Dewpoint 21°C / 70°F
Humidity 59%
Altimeter 29.92" Hg
Pressure 1013 hPa
Elevation 109
METAR KRCZ 182130Z AUTO 21009G15KT 10SM SCT046 SCT060 30/21 A2992 RMK AO2 T03020211
Observed Flight Rules
Aug-18 @ 21:30 UTC
(24 minutes ago)
VFR
Wind Visibility
210° at 9 knots
 Gusting to 15 knots
10 miles
Clouds
  • Scattered at 4,600' AGL
  • Scattered at 6,000' AGL
Temperature Dewpoint
30°C / 86°F 21°C / 70°F
Humidity Altimeter Pressure
59% 29.92" Hg 1013 hPa